sensor_id;sensor_type;location;lat;lon;timestamp;temperature;humidity
6210;DHT22;3138;52.550;13.148;2022-08-11T00:00:21;16.30;99.90
6210;DHT22;3138;52.550;13.148;2022-08-11T00:03:03;16.20;99.90
6210;DHT22;3138;52.550;13.148;2022-08-11T00:05:41;16.20;99.90
6210;DHT22;3138;52.550;13.148;2022-08-11T00:08:09;16.10;99.90
6210;DHT22;3138;52.550;13.148;2022-08-11T00:10:37;16.10;99.90
6210;DHT22;3138;52.550;13.148;2022-08-11T00:13:05;16.00;99.90
6210;DHT22;3138;52.550;13.148;2022-08-11T00:15:39;16.10;99.90
6210;DHT22;3138;52.550;13.148;2022-08-11T00:18:07;16.00;99.90
6210;DHT22;3138;52.550;13.148;2022-08-11T00:20:38;16.00;99.90
6210;DHT22;3138;52.550;13.148;2022-08-11T00:23:07;15.90;99.90
6210;DHT22;3138;52.550;13.148;2022-08-11T00:25:37;15.70;99.90
6210;DHT22;3138;52.550;13.148;2022-08-11T00:28:22;15.70;99.90
6210;DHT22;3138;52.550;13.148;2022-08-11T00:30:50;15.60;99.90
6210;DHT22;3138;52.550;13.148;2022-08-11T00:33:17;15.60;99.90
6210;DHT22;3138;52.550;13.148;2022-08-11T00:35:48;15.50;99.90
6210;DHT22;3138;52.550;13.148;2022-08-11T00:38:16;15.30;99.90
6210;DHT22;3138;52.550;13.148;2022-08-11T00:40:54;15.10;99.90
6210;DHT22;3138;52.550;13.148;2022-08-11T00:43:34;15.00;99.90
6210;DHT22;3138;52.550;13.148;2022-08-11T00:46:13;15.00;99.90
6210;DHT22;3138;52.550;13.148;2022-08-11T00:48:49;15.10;99.90
6210;DHT22;3138;52.550;13.148;2022-08-11T00:51:36;15.00;99.90
6210;DHT22;3138;52.550;13.148;2022-08-11T00:54:18;15.10;99.90
6210;DHT22;3138;52.550;13.148;2022-08-11T00:57:18;15.00;99.90
6210;DHT22;3138;52.550;13.148;2022-08-11T01:00:12;15.00;99.90
6210;DHT22;3138;52.550;13.148;2022-08-11T01:03:06;14.90;99.90
6210;DHT22;3138;52.550;13.148;2022-08-11T01:05:50;15.00;99.90
6210;DHT22;3138;52.550;13.148;2022-08-11T01:08:57;14.80;99.90
6210;DHT22;3138;52.550;13.148;2022-08-11T01:14:51;15.00;99.90
6210;DHT22;3138;52.550;13.148;2022-08-11T01:17:54;15.00;99.90
6210;DHT22;3138;52.550;13.148;2022-08-11T01:21:05;15.10;99.90
6210;DHT22;3138;52.550;13.148;2022-08-11T01:24:08;15.10;99.90
6210;DHT22;3138;52.550;13.148;2022-08-11T01:27:12;15.10;99.90
6210;DHT22;3138;52.550;13.148;2022-08-11T01:30:09;15.10;99.90
6210;DHT22;3138;52.550;13.148;2022-08-11T01:39:22;15.00;99.90
6210;DHT22;3138;52.550;13.148;2022-08-11T01:42:17;14.80;99.90
6210;DHT22;3138;52.550;13.148;2022-08-11T01:45:22;14.80;99.90
6210;DHT22;3138;52.550;13.148;2022-08-11T01:47:58;14.80;99.90
6210;DHT22;3138;52.550;13.148;2022-08-11T01:50:39;14.70;99.90
6210;DHT22;3138;52.550;13.148;2022-08-11T01:53:20;14.80;99.90
6210;DHT22;3138;52.550;13.148;2022-08-11T01:56:08;14.80;99.90
6210;DHT22;3138;52.550;13.148;2022-08-11T01:58:42;14.80;99.90
6210;DHT22;3138;52.550;13.148;2022-08-11T02:01:25;14.70;99.90
6210;DHT22;3138;52.550;13.148;2022-08-11T02:04:01;14.60;99.90
6210;DHT22;3138;52.550;13.148;2022-08-11T02:06:39;14.40;99.90
6210;DHT22;3138;52.550;13.148;2022-08-11T02:09:37;14.30;99.90
6210;DHT22;3138;52.550;13.148;2022-08-11T02:12:14;14.30;99.90
6210;DHT22;3138;52.550;13.148;2022-08-11T02:14:45;14.20;99.90
6210;DHT22;3138;52.550;13.148;2022-08-11T02:17:18;14.10;99.90
6210;DHT22;3138;52.550;13.148;2022-08-11T02:19:54;14.10;99.90
6210;DHT22;3138;52.550;13.148;2022-08-11T02:22:50;14.00;99.90
6210;DHT22;3138;52.550;13.148;2022-08-11T02:25:39;13.90;99.90
6210;DHT22;3138;52.550;13.148;2022-08-11T02:28:18;13.80;99.90
6210;DHT22;3138;52.550;13.148;2022-08-11T02:30:51;13.90;99.90
6210;DHT22;3138;52.550;13.148;2022-08-11T02:33:41;13.70;99.90
6210;DHT22;3138;52.550;13.148;2022-08-11T02:36:11;13.70;99.90
6210;DHT22;3138;52.550;13.148;2022-08-11T02:38:48;13.70;99.90
6210;DHT22;3138;52.550;13.148;2022-08-11T02:41:22;13.60;99.90
6210;DHT22;3138;52.550;13.148;2022-08-11T02:44:23;13.50;99.90
6210;DHT22;3138;52.550;13.148;2022-08-11T02:47:02;13.50;99.90
6210;DHT22;3138;52.550;13.148;2022-08-11T02:49:43;13.50;99.90
6210;DHT22;3138;52.550;13.148;2022-08-11T02:52:33;13.40;99.90
6210;DHT22;3138;52.550;13.148;2022-08-11T02:55:12;13.40;99.90
6210;DHT22;3138;52.550;13.148;2022-08-11T02:57:43;13.30;99.90
6210;DHT22;3138;52.550;13.148;2022-08-11T03:00:16;13.20;99.90
6210;DHT22;3138;52.550;13.148;2022-08-11T03:03:11;13.20;99.90
6210;DHT22;3138;52.550;13.148;2022-08-11T03:05:51;13.20;99.90
6210;DHT22;3138;52.550;13.148;2022-08-11T03:08:30;13.30;99.90
6210;DHT22;3138;52.550;13.148;2022-08-11T03:11:06;13.20;99.90
6210;DHT22;3138;52.550;13.148;2022-08-11T03:14:08;13.10;99.90
6210;DHT22;3138;52.550;13.148;2022-08-11T03:16:59;13.20;99.90
6210;DHT22;3138;52.550;13.148;2022-08-11T03:19:35;13.20;99.90
6210;DHT22;3138;52.550;13.148;2022-08-11T03:22:08;13.10;99.90
6210;DHT22;3138;52.550;13.148;2022-08-11T03:24:50;13.00;99.90
6210;DHT22;3138;52.550;13.148;2022-08-11T03:27:31;13.00;99.90
6210;DHT22;3138;52.550;13.148;2022-08-11T03:30:05;13.00;99.90
6210;DHT22;3138;52.550;13.148;2022-08-11T03:32:45;12.90;99.90
6210;DHT22;3138;52.550;13.148;2022-08-11T03:35:40;12.80;99.90
6210;DHT22;3138;52.550;13.148;2022-08-11T03:38:11;12.80;99.90
6210;DHT22;3138;52.550;13.148;2022-08-11T03:40:57;12.80;99.90
6210;DHT22;3138;52.550;13.148;2022-08-11T03:43:53;12.80;99.90
6210;DHT22;3138;52.550;13.148;2022-08-11T03:46:31;12.80;99.90
6210;DHT22;3138;52.550;13.148;2022-08-11T03:49:11;12.90;99.90
6210;DHT22;3138;52.550;13.148;2022-08-11T03:51:49;13.00;99.90
6210;DHT22;3138;52.550;13.148;2022-08-11T03:54:27;12.80;99.90
6210;DHT22;3138;52.550;13.148;2022-08-11T04:00:28;12.80;99.90
6210;DHT22;3138;52.550;13.148;2022-08-11T04:03:51;13.00;99.90
6210;DHT22;3138;52.550;13.148;2022-08-11T04:06:49;13.00;99.90
6210;DHT22;3138;52.550;13.148;2022-08-11T04:09:57;12.90;99.90
6210;DHT22;3138;52.550;13.148;2022-08-11T04:12:52;12.90;99.90
6210;DHT22;3138;52.550;13.148;2022-08-11T04:15:44;13.00;99.90
6210;DHT22;3138;52.550;13.148;2022-08-11T04:21:54;13.10;99.90
6210;DHT22;3138;52.550;13.148;2022-08-11T04:24:57;13.20;99.90
6210;DHT22;3138;52.550;13.148;2022-08-11T04:31:01;13.50;99.90
6210;DHT22;3138;52.550;13.148;2022-08-11T04:33:42;13.70;99.90
6210;DHT22;3138;52.550;13.148;2022-08-11T04:36:34;14.10;99.90
6210;DHT22;3138;52.550;13.148;2022-08-11T04:39:33;14.10;99.90
6210;DHT22;3138;52.550;13.148;2022-08-11T04:42:27;14.20;99.90
6210;DHT22;3138;52.550;13.148;2022-08-11T04:45:48;14.30;99.90
6210;DHT22;3138;52.550;13.148;2022-08-11T04:48:26;14.60;99.90
6210;DHT22;3138;52.550;13.148;2022-08-11T04:51:43;14.90;99.90
6210;DHT22;3138;52.550;13.148;2022-08-11T04:54:53;15.20;99.90
6210;DHT22;3138;52.550;13.148;2022-08-11T04:57:50;15.60;99.90
6210;DHT22;3138;52.550;13.148;2022-08-11T05:00:41;15.80;99.90
6210;DHT22;3138;52.550;13.148;2022-08-11T05:04:03;16.00;99.90
6210;DHT22;3138;52.550;13.148;2022-08-11T05:07:35;16.10;99.90
6210;DHT22;3138;52.550;13.148;2022-08-11T05:10:18;16.40;99.90
6210;DHT22;3138;52.550;13.148;2022-08-11T05:12:53;16.60;99.90
6210;DHT22;3138;52.550;13.148;2022-08-11T05:15:29;16.60;99.90
6210;DHT22;3138;52.550;13.148;2022-08-11T05:18:21;16.80;99.90
6210;DHT22;3138;52.550;13.148;2022-08-11T05:21:08;17.00;99.90
6210;DHT22;3138;52.550;13.148;2022-08-11T05:23:56;17.20;99.90
6210;DHT22;3138;52.550;13.148;2022-08-11T05:26:46;17.40;99.90
6210;DHT22;3138;52.550;13.148;2022-08-11T05:29:39;17.80;99.90
6210;DHT22;3138;52.550;13.148;2022-08-11T05:32:25;17.90;99.90
6210;DHT22;3138;52.550;13.148;2022-08-11T05:35:12;18.10;99.90
6210;DHT22;3138;52.550;13.148;2022-08-11T05:37:42;18.30;99.90
6210;DHT22;3138;52.550;13.148;2022-08-11T05:40:27;18.70;99.90
6210;DHT22;3138;52.550;13.148;2022-08-11T05:43:14;18.90;99.90
6210;DHT22;3138;52.550;13.148;2022-08-11T05:46:00;19.00;99.90
6210;DHT22;3138;52.550;13.148;2022-08-11T05:48:44;19.20;99.70
6210;DHT22;3138;52.550;13.148;2022-08-11T05:51:33;19.60;99.30
6210;DHT22;3138;52.550;13.148;2022-08-11T05:54:18;19.80;99.20
6210;DHT22;3138;52.550;13.148;2022-08-11T05:57:03;19.90;98.50
6210;DHT22;3138;52.550;13.148;2022-08-11T05:59:33;20.30;96.40
6210;DHT22;3138;52.550;13.148;2022-08-11T06:02:01;20.30;95.50
6210;DHT22;3138;52.550;13.148;2022-08-11T06:04:29;20.40;94.40
6210;DHT22;3138;52.550;13.148;2022-08-11T06:06:58;20.50;92.80
6210;DHT22;3138;52.550;13.148;2022-08-11T06:09:31;20.50;91.80
6210;DHT22;3138;52.550;13.148;2022-08-11T06:12:00;20.80;91.80
6210;DHT22;3138;52.550;13.148;2022-08-11T06:14:28;21.20;93.00
6210;DHT22;3138;52.550;13.148;2022-08-11T06:16:59;21.50;90.90
6210;DHT22;3138;52.550;13.148;2022-08-11T06:19:34;21.40;90.70
6210;DHT22;3138;52.550;13.148;2022-08-11T06:22:03;21.50;90.10
6210;DHT22;3138;52.550;13.148;2022-08-11T06:24:31;21.40;90.50
6210;DHT22;3138;52.550;13.148;2022-08-11T06:26:59;21.70;89.90
6210;DHT22;3138;52.550;13.148;2022-08-11T06:29:27;21.90;87.60
6210;DHT22;3138;52.550;13.148;2022-08-11T06:31:58;21.80;85.50
6210;DHT22;3138;52.550;13.148;2022-08-11T06:34:34;22.00;84.00
6210;DHT22;3138;52.550;13.148;2022-08-11T06:37:15;22.30;84.70
6210;DHT22;3138;52.550;13.148;2022-08-11T06:39:47;22.60;86.10
6210;DHT22;3138;52.550;13.148;2022-08-11T06:42:33;22.70;80.80
6210;DHT22;3138;52.550;13.148;2022-08-11T06:45:15;22.50;81.70
6210;DHT22;3138;52.550;13.148;2022-08-11T06:47:47;22.90;83.80
6210;DHT22;3138;52.550;13.148;2022-08-11T06:50:16;22.90;79.90
6210;DHT22;3138;52.550;13.148;2022-08-11T06:53:03;23.20;85.10
6210;DHT22;3138;52.550;13.148;2022-08-11T06:55:33;23.20;80.10
6210;DHT22;3138;52.550;13.148;2022-08-11T06:58:21;23.60;81.10
6210;DHT22;3138;52.550;13.148;2022-08-11T07:01:10;23.50;77.00
6210;DHT22;3138;52.550;13.148;2022-08-11T07:03:42;23.90;75.00
6210;DHT22;3138;52.550;13.148;2022-08-11T07:06:21;24.20;75.00
6210;DHT22;3138;52.550;13.148;2022-08-11T07:09:12;24.30;73.20
6210;DHT22;3138;52.550;13.148;2022-08-11T07:12:30;23.80;69.00
6210;DHT22;3138;52.550;13.148;2022-08-11T07:15:19;23.80;71.40
6210;DHT22;3138;52.550;13.148;2022-08-11T07:18:06;24.00;70.50
6210;DHT22;3138;52.550;13.148;2022-08-11T07:20:54;24.40;72.10
6210;DHT22;3138;52.550;13.148;2022-08-11T07:23:50;24.50;66.50
6210;DHT22;3138;52.550;13.148;2022-08-11T07:26:40;24.60;66.00
6210;DHT22;3138;52.550;13.148;2022-08-11T07:29:26;24.50;66.20
6210;DHT22;3138;52.550;13.148;2022-08-11T07:31:55;24.60;63.90
6210;DHT22;3138;52.550;13.148;2022-08-11T07:34:30;24.80;65.50
6210;DHT22;3138;52.550;13.148;2022-08-11T07:37:03;25.00;62.10
6210;DHT22;3138;52.550;13.148;2022-08-11T07:39:31;24.90;62.80
6210;DHT22;3138;52.550;13.148;2022-08-11T07:41:59;25.10;64.00
6210;DHT22;3138;52.550;13.148;2022-08-11T07:44:31;25.80;62.90
6210;DHT22;3138;52.550;13.148;2022-08-11T07:47:18;26.00;62.20
6210;DHT22;3138;52.550;13.148;2022-08-11T07:50:03;26.10;58.90
6210;DHT22;3138;52.550;13.148;2022-08-11T07:52:49;26.00;57.60
6210;DHT22;3138;52.550;13.148;2022-08-11T07:55:17;25.80;59.80
6210;DHT22;3138;52.550;13.148;2022-08-11T07:57:44;25.90;60.00
6210;DHT22;3138;52.550;13.148;2022-08-11T08:00:34;26.00;59.80
6210;DHT22;3138;52.550;13.148;2022-08-11T08:03:19;25.50;64.30
6210;DHT22;3138;52.550;13.148;2022-08-11T08:06:04;25.60;60.60
6210;DHT22;3138;52.550;13.148;2022-08-11T08:08:51;25.50;65.10
6210;DHT22;3138;52.550;13.148;2022-08-11T08:11:37;25.80;63.30
6210;DHT22;3138;52.550;13.148;2022-08-11T08:14:22;25.80;56.80
6210;DHT22;3138;52.550;13.148;2022-08-11T08:17:08;26.00;57.00
6210;DHT22;3138;52.550;13.148;2022-08-11T08:19:53;26.30;57.00
6210;DHT22;3138;52.550;13.148;2022-08-11T08:22:21;26.10;54.10
6210;DHT22;3138;52.550;13.148;2022-08-11T08:24:50;26.30;53.60
6210;DHT22;3138;52.550;13.148;2022-08-11T08:27:19;26.20;54.50
6210;DHT22;3138;52.550;13.148;2022-08-11T08:29:46;26.10;57.50
6210;DHT22;3138;52.550;13.148;2022-08-11T08:32:33;26.30;57.00
6210;DHT22;3138;52.550;13.148;2022-08-11T08:35:04;27.00;54.70
6210;DHT22;3138;52.550;13.148;2022-08-11T08:37:32;27.10;58.40
6210;DHT22;3138;52.550;13.148;2022-08-11T08:40:00;26.80;53.00
6210;DHT22;3138;52.550;13.148;2022-08-11T08:42:28;26.70;52.30
6210;DHT22;3138;52.550;13.148;2022-08-11T08:45:00;26.60;52.30
6210;DHT22;3138;52.550;13.148;2022-08-11T08:47:29;26.80;51.30
6210;DHT22;3138;52.550;13.148;2022-08-11T08:49:59;27.20;52.00
6210;DHT22;3138;52.550;13.148;2022-08-11T08:52:30;27.10;51.40
6210;DHT22;3138;52.550;13.148;2022-08-11T08:55:03;27.30;49.90
6210;DHT22;3138;52.550;13.148;2022-08-11T08:57:32;27.50;52.30
6210;DHT22;3138;52.550;13.148;2022-08-11T09:00:02;27.30;49.80
6210;DHT22;3138;52.550;13.148;2022-08-11T09:02:30;27.70;50.40
6210;DHT22;3138;52.550;13.148;2022-08-11T09:04:57;27.70;49.90
6210;DHT22;3138;52.550;13.148;2022-08-11T09:07:24;27.90;47.80
6210;DHT22;3138;52.550;13.148;2022-08-11T09:09:54;27.60;47.50
6210;DHT22;3138;52.550;13.148;2022-08-11T09:12:26;27.60;49.00
6210;DHT22;3138;52.550;13.148;2022-08-11T09:14:54;28.40;47.80
6210;DHT22;3138;52.550;13.148;2022-08-11T09:17:34;28.30;47.30
6210;DHT22;3138;52.550;13.148;2022-08-11T09:20:05;28.70;45.70
6210;DHT22;3138;52.550;13.148;2022-08-11T09:22:34;28.20;46.80
6210;DHT22;3138;52.550;13.148;2022-08-11T09:25:21;27.70;43.70
6210;DHT22;3138;52.550;13.148;2022-08-11T09:28:09;27.70;45.10
6210;DHT22;3138;52.550;13.148;2022-08-11T09:30:40;27.70;44.20
6210;DHT22;3138;52.550;13.148;2022-08-11T09:33:09;27.60;43.80
6210;DHT22;3138;52.550;13.148;2022-08-11T09:35:38;28.40;46.10
6210;DHT22;3138;52.550;13.148;2022-08-11T09:38:10;28.70;47.70
6210;DHT22;3138;52.550;13.148;2022-08-11T09:40:55;28.20;43.80
6210;DHT22;3138;52.550;13.148;2022-08-11T09:43:24;28.00;43.60
6210;DHT22;3138;52.550;13.148;2022-08-11T09:46:09;28.30;45.00
6210;DHT22;3138;52.550;13.148;2022-08-11T09:48:39;28.20;42.50
6210;DHT22;3138;52.550;13.148;2022-08-11T09:51:08;28.50;41.30
6210;DHT22;3138;52.550;13.148;2022-08-11T09:53:37;28.30;40.70
6210;DHT22;3138;52.550;13.148;2022-08-11T09:56:05;28.60;44.60
6210;DHT22;3138;52.550;13.148;2022-08-11T09:58:49;28.30;41.00
6210;DHT22;3138;52.550;13.148;2022-08-11T10:01:19;28.10;41.50
6210;DHT22;3138;52.550;13.148;2022-08-11T10:03:55;28.50;41.80
6210;DHT22;3138;52.550;13.148;2022-08-11T10:06:24;28.50;39.90
6210;DHT22;3138;52.550;13.148;2022-08-11T10:09:09;28.30;39.40
6210;DHT22;3138;52.550;13.148;2022-08-11T10:11:39;28.50;40.00
6210;DHT22;3138;52.550;13.148;2022-08-11T10:14:08;28.60;40.70
6210;DHT22;3138;52.550;13.148;2022-08-11T10:16:54;28.90;40.20
6210;DHT22;3138;52.550;13.148;2022-08-11T10:19:22;29.30;39.80
6210;DHT22;3138;52.550;13.148;2022-08-11T10:21:51;29.10;40.10
6210;DHT22;3138;52.550;13.148;2022-08-11T10:24:32;29.40;38.20
6210;DHT22;3138;52.550;13.148;2022-08-11T10:27:17;28.80;38.20
6210;DHT22;3138;52.550;13.148;2022-08-11T10:29:46;29.10;38.20
6210;DHT22;3138;52.550;13.148;2022-08-11T10:32:31;28.70;36.20
6210;DHT22;3138;52.550;13.148;2022-08-11T10:35:26;28.60;38.60
6210;DHT22;3138;52.550;13.148;2022-08-11T10:37:53;29.00;38.00
6210;DHT22;3138;52.550;13.148;2022-08-11T10:40:22;28.80;37.90
6210;DHT22;3138;52.550;13.148;2022-08-11T10:42:52;28.60;36.10
6210;DHT22;3138;52.550;13.148;2022-08-11T10:45:34;28.80;35.80
6210;DHT22;3138;52.550;13.148;2022-08-11T10:48:20;28.90;35.90
6210;DHT22;3138;52.550;13.148;2022-08-11T10:50:49;29.10;38.50
6210;DHT22;3138;52.550;13.148;2022-08-11T10:53:34;29.10;35.70
6210;DHT22;3138;52.550;13.148;2022-08-11T10:56:19;29.00;35.50
6210;DHT22;3138;52.550;13.148;2022-08-11T10:59:05;28.90;35.20
6210;DHT22;3138;52.550;13.148;2022-08-11T11:01:39;29.40;38.80
6210;DHT22;3138;52.550;13.148;2022-08-11T11:04:12;29.20;37.20
6210;DHT22;3138;52.550;13.148;2022-08-11T11:06:49;29.70;35.60
6210;DHT22;3138;52.550;13.148;2022-08-11T11:09:19;29.50;36.60
6210;DHT22;3138;52.550;13.148;2022-08-11T11:11:49;28.50;34.20
6210;DHT22;3138;52.550;13.148;2022-08-11T11:14:35;28.40;34.30
6210;DHT22;3138;52.550;13.148;2022-08-11T11:17:26;28.40;35.60
6210;DHT22;3138;52.550;13.148;2022-08-11T11:20:15;29.20;40.00
6210;DHT22;3138;52.550;13.148;2022-08-11T11:22:43;29.40;34.80
6210;DHT22;3138;52.550;13.148;2022-08-11T11:25:24;28.90;34.10
6210;DHT22;3138;52.550;13.148;2022-08-11T11:28:22;29.10;36.00
6210;DHT22;3138;52.550;13.148;2022-08-11T11:31:05;29.80;35.80
6210;DHT22;3138;52.550;13.148;2022-08-11T11:33:49;29.70;35.90
6210;DHT22;3138;52.550;13.148;2022-08-11T11:36:25;29.40;33.60
6210;DHT22;3138;52.550;13.148;2022-08-11T11:38:54;30.00;37.40
6210;DHT22;3138;52.550;13.148;2022-08-11T11:41:24;30.10;34.70
6210;DHT22;3138;52.550;13.148;2022-08-11T11:43:52;30.50;35.10
6210;DHT22;3138;52.550;13.148;2022-08-11T11:46:20;30.20;32.70
6210;DHT22;3138;52.550;13.148;2022-08-11T11:48:49;30.10;33.20
6210;DHT22;3138;52.550;13.148;2022-08-11T11:51:16;29.60;31.60
6210;DHT22;3138;52.550;13.148;2022-08-11T11:53:43;29.90;32.00
6210;DHT22;3138;52.550;13.148;2022-08-11T11:56:11;29.90;34.30
6210;DHT22;3138;52.550;13.148;2022-08-11T11:58:39;29.70;32.20
6210;DHT22;3138;52.550;13.148;2022-08-11T12:01:24;29.40;33.60
6210;DHT22;3138;52.550;13.148;2022-08-11T12:03:54;29.10;32.60
6210;DHT22;3138;52.550;13.148;2022-08-11T12:06:23;29.00;31.70
6210;DHT22;3138;52.550;13.148;2022-08-11T12:08:52;29.10;31.90
6210;DHT22;3138;52.550;13.148;2022-08-11T12:11:22;29.20;31.80
6210;DHT22;3138;52.550;13.148;2022-08-11T12:14:08;29.10;31.30
6210;DHT22;3138;52.550;13.148;2022-08-11T12:16:37;29.20;30.70
6210;DHT22;3138;52.550;13.148;2022-08-11T12:19:07;29.40;31.30
6210;DHT22;3138;52.550;13.148;2022-08-11T12:21:37;29.30;31.00
6210;DHT22;3138;52.550;13.148;2022-08-11T12:24:25;29.40;31.10
6210;DHT22;3138;52.550;13.148;2022-08-11T12:27:10;29.30;28.70
6210;DHT22;3138;52.550;13.148;2022-08-11T12:29:48;29.40;31.80
6210;DHT22;3138;52.550;13.148;2022-08-11T12:32:16;29.80;31.10
6210;DHT22;3138;52.550;13.148;2022-08-11T12:34:44;29.90;32.70
6210;DHT22;3138;52.550;13.148;2022-08-11T12:37:12;29.70;30.10
6210;DHT22;3138;52.550;13.148;2022-08-11T12:39:44;29.60;31.60
6210;DHT22;3138;52.550;13.148;2022-08-11T12:42:31;30.00;33.30
6210;DHT22;3138;52.550;13.148;2022-08-11T12:45:16;30.30;35.40
6210;DHT22;3138;52.550;13.148;2022-08-11T12:48:01;30.60;32.60
6210;DHT22;3138;52.550;13.148;2022-08-11T12:50:50;30.40;32.70
6210;DHT22;3138;52.550;13.148;2022-08-11T12:53:38;30.00;31.60
6210;DHT22;3138;52.550;13.148;2022-08-11T12:56:07;29.90;31.60
6210;DHT22;3138;52.550;13.148;2022-08-11T12:58:53;30.10;30.90
6210;DHT22;3138;52.550;13.148;2022-08-11T13:01:38;29.90;31.20
6210;DHT22;3138;52.550;13.148;2022-08-11T13:04:22;29.70;29.80
6210;DHT22;3138;52.550;13.148;2022-08-11T13:07:08;30.00;31.10
6210;DHT22;3138;52.550;13.148;2022-08-11T13:09:37;29.90;30.10
6210;DHT22;3138;52.550;13.148;2022-08-11T13:12:04;29.90;28.20
6210;DHT22;3138;52.550;13.148;2022-08-11T13:14:49;30.00;29.40
6210;DHT22;3138;52.550;13.148;2022-08-11T13:17:17;30.10;30.30
6210;DHT22;3138;52.550;13.148;2022-08-11T13:19:48;29.80;28.90
6210;DHT22;3138;52.550;13.148;2022-08-11T13:22:19;29.70;28.60
6210;DHT22;3138;52.550;13.148;2022-08-11T13:24:48;29.90;28.90
6210;DHT22;3138;52.550;13.148;2022-08-11T13:27:15;30.30;30.10
6210;DHT22;3138;52.550;13.148;2022-08-11T13:29:45;30.00;29.60
6210;DHT22;3138;52.550;13.148;2022-08-11T13:32:13;29.90;29.70
6210;DHT22;3138;52.550;13.148;2022-08-11T13:34:41;30.20;29.70
6210;DHT22;3138;52.550;13.148;2022-08-11T13:37:09;30.00;29.50
6210;DHT22;3138;52.550;13.148;2022-08-11T13:39:42;29.90;29.60
6210;DHT22;3138;52.550;13.148;2022-08-11T13:42:13;29.80;29.80
6210;DHT22;3138;52.550;13.148;2022-08-11T13:44:41;29.80;28.10
6210;DHT22;3138;52.550;13.148;2022-08-11T13:47:12;29.80;28.40
6210;DHT22;3138;52.550;13.148;2022-08-11T13:49:40;29.70;29.00
6210;DHT22;3138;52.550;13.148;2022-08-11T13:52:10;30.00;28.70
6210;DHT22;3138;52.550;13.148;2022-08-11T13:54:40;29.70;28.70
6210;DHT22;3138;52.550;13.148;2022-08-11T13:57:09;29.70;28.20
6210;DHT22;3138;52.550;13.148;2022-08-11T13:59:37;29.50;28.10
6210;DHT22;3138;52.550;13.148;2022-08-11T14:02:07;29.60;28.70
6210;DHT22;3138;52.550;13.148;2022-08-11T14:04:40;29.90;29.10
6210;DHT22;3138;52.550;13.148;2022-08-11T14:07:10;30.20;29.50
6210;DHT22;3138;52.550;13.148;2022-08-11T14:09:42;30.00;28.50
6210;DHT22;3138;52.550;13.148;2022-08-11T14:12:13;30.20;28.60
6210;DHT22;3138;52.550;13.148;2022-08-11T14:15:00;30.20;28.30
6210;DHT22;3138;52.550;13.148;2022-08-11T14:17:30;30.20;27.60
6210;DHT22;3138;52.550;13.148;2022-08-11T14:20:00;30.10;27.40
6210;DHT22;3138;52.550;13.148;2022-08-11T14:22:29;30.00;29.00
6210;DHT22;3138;52.550;13.148;2022-08-11T14:24:57;30.30;27.90
6210;DHT22;3138;52.550;13.148;2022-08-11T14:27:24;30.00;27.80
6210;DHT22;3138;52.550;13.148;2022-08-11T14:29:56;29.90;28.50
6210;DHT22;3138;52.550;13.148;2022-08-11T14:32:23;29.70;27.70
6210;DHT22;3138;52.550;13.148;2022-08-11T14:34:51;29.70;28.20
6210;DHT22;3138;52.550;13.148;2022-08-11T14:39:48;29.90;29.40
6210;DHT22;3138;52.550;13.148;2022-08-11T14:42:18;29.80;28.10
6210;DHT22;3138;52.550;13.148;2022-08-11T14:45:05;29.90;29.20
6210;DHT22;3138;52.550;13.148;2022-08-11T14:48:04;30.00;28.00
6210;DHT22;3138;52.550;13.148;2022-08-11T14:50:34;29.90;27.20
6210;DHT22;3138;52.550;13.148;2022-08-11T14:53:04;29.70;27.40
6210;DHT22;3138;52.550;13.148;2022-08-11T14:55:35;29.80;28.10
6210;DHT22;3138;52.550;13.148;2022-08-11T14:58:23;29.60;27.00
6210;DHT22;3138;52.550;13.148;2022-08-11T15:00:51;29.60;27.20
6210;DHT22;3138;52.550;13.148;2022-08-11T15:03:20;29.80;28.50
6210;DHT22;3138;52.550;13.148;2022-08-11T15:05:48;29.60;27.60
6210;DHT22;3138;52.550;13.148;2022-08-11T15:08:16;29.70;27.30
6210;DHT22;3138;52.550;13.148;2022-08-11T15:10:44;29.50;27.70
6210;DHT22;3138;52.550;13.148;2022-08-11T15:13:11;29.80;26.90
6210;DHT22;3138;52.550;13.148;2022-08-11T15:15:44;29.70;27.00
6210;DHT22;3138;52.550;13.148;2022-08-11T15:18:29;29.70;26.40
6210;DHT22;3138;52.550;13.148;2022-08-11T15:20:57;29.60;26.20
6210;DHT22;3138;52.550;13.148;2022-08-11T15:23:41;29.50;26.20
6210;DHT22;3138;52.550;13.148;2022-08-11T15:26:30;29.60;26.00
6210;DHT22;3138;52.550;13.148;2022-08-11T15:29:19;29.40;25.80
6210;DHT22;3138;52.550;13.148;2022-08-11T15:32:14;29.40;26.10
6210;DHT22;3138;52.550;13.148;2022-08-11T15:35:01;29.60;25.70
6210;DHT22;3138;52.550;13.148;2022-08-11T15:37:50;29.40;25.80
6210;DHT22;3138;52.550;13.148;2022-08-11T15:40:23;29.40;25.90
6210;DHT22;3138;52.550;13.148;2022-08-11T15:43:13;29.50;25.80
6210;DHT22;3138;52.550;13.148;2022-08-11T15:46:05;29.50;26.30
6210;DHT22;3138;52.550;13.148;2022-08-11T15:48:41;29.50;26.70
6210;DHT22;3138;52.550;13.148;2022-08-11T15:51:15;29.60;25.30
6210;DHT22;3138;52.550;13.148;2022-08-11T15:53:51;29.50;25.60
6210;DHT22;3138;52.550;13.148;2022-08-11T15:56:18;29.40;25.50
6210;DHT22;3138;52.550;13.148;2022-08-11T15:58:48;29.20;25.40
6210;DHT22;3138;52.550;13.148;2022-08-11T16:01:36;29.10;25.60
6210;DHT22;3138;52.550;13.148;2022-08-11T16:04:23;28.20;27.00
6210;DHT22;3138;52.550;13.148;2022-08-11T16:06:54;28.20;26.40
6210;DHT22;3138;52.550;13.148;2022-08-11T16:09:27;28.30;25.60
6210;DHT22;3138;52.550;13.148;2022-08-11T16:11:58;28.30;25.10
6210;DHT22;3138;52.550;13.148;2022-08-11T16:14:26;28.10;25.60
6210;DHT22;3138;52.550;13.148;2022-08-11T16:17:12;27.90;26.50
6210;DHT22;3138;52.550;13.148;2022-08-11T16:19:43;28.00;26.30
6210;DHT22;3138;52.550;13.148;2022-08-11T16:22:12;28.10;25.60
6210;DHT22;3138;52.550;13.148;2022-08-11T16:24:43;28.30;26.50
6210;DHT22;3138;52.550;13.148;2022-08-11T16:27:12;28.10;25.20
6210;DHT22;3138;52.550;13.148;2022-08-11T16:29:42;28.20;25.70
6210;DHT22;3138;52.550;13.148;2022-08-11T16:32:12;28.30;25.70
6210;DHT22;3138;52.550;13.148;2022-08-11T16:34:52;28.20;25.60
6210;DHT22;3138;52.550;13.148;2022-08-11T16:37:50;28.20;25.30
6210;DHT22;3138;52.550;13.148;2022-08-11T16:40:36;28.20;25.00
6210;DHT22;3138;52.550;13.148;2022-08-11T16:43:07;28.10;24.90
6210;DHT22;3138;52.550;13.148;2022-08-11T16:45:52;27.90;25.50
6210;DHT22;3138;52.550;13.148;2022-08-11T16:48:41;28.00;25.20
6210;DHT22;3138;52.550;13.148;2022-08-11T16:51:11;28.00;24.90
6210;DHT22;3138;52.550;13.148;2022-08-11T16:53:39;28.00;24.60
6210;DHT22;3138;52.550;13.148;2022-08-11T16:56:07;28.00;25.40
6210;DHT22;3138;52.550;13.148;2022-08-11T16:58:36;28.00;25.50
6210;DHT22;3138;52.550;13.148;2022-08-11T17:01:23;27.90;26.10
6210;DHT22;3138;52.550;13.148;2022-08-11T17:03:54;27.90;25.70
6210;DHT22;3138;52.550;13.148;2022-08-11T17:06:45;27.90;25.70
6210;DHT22;3138;52.550;13.148;2022-08-11T17:09:33;27.90;25.80
6210;DHT22;3138;52.550;13.148;2022-08-11T17:12:21;28.00;25.70
6210;DHT22;3138;52.550;13.148;2022-08-11T17:15:10;27.90;25.80
6210;DHT22;3138;52.550;13.148;2022-08-11T17:17:59;27.90;25.10
6210;DHT22;3138;52.550;13.148;2022-08-11T17:20:29;27.80;25.90